sensor_id;sensor_type;location;lat;lon;timestamp;pressure;altitude;pressure_sealevel;temperature;humidity
29371;BME280;16357;52.188;7.838;2023-04-25T00:01:49;100089.38;;;10.24;59.87
29371;BME280;16357;52.188;7.838;2023-04-25T00:04:17;100083.38;;;10.22;59.74
29371;BME280;16357;52.188;7.838;2023-04-25T00:06:44;100093.44;;;10.20;60.20
29371;BME280;16357;52.188;7.838;2023-04-25T00:09:11;100093.78;;;10.17;60.01
29371;BME280;16357;52.188;7.838;2023-04-25T00:11:37;100086.91;;;10.14;60.36
29371;BME280;16357;52.188;7.838;2023-04-25T00:14:04;100087.25;;;10.11;61.00
29371;BME280;16357;52.188;7.838;2023-04-25T00:16:30;100089.25;;;10.09;60.70
29371;BME280;16357;52.188;7.838;2023-04-25T00:19:00;100098.63;;;10.05;61.02
29371;BME280;16357;52.188;7.838;2023-04-25T00:21:27;100094.44;;;10.02;61.01
29371;BME280;16357;52.188;7.838;2023-04-25T00:23:55;100104.66;;;9.99;61.48
29371;BME280;16357;52.188;7.838;2023-04-25T00:26:21;100104.00;;;9.97;61.60
29371;BME280;16357;52.188;7.838;2023-04-25T00:28:48;100105.00;;;9.96;61.52
29371;BME280;16357;52.188;7.838;2023-04-25T00:31:14;100107.84;;;9.94;62.00
29371;BME280;16357;52.188;7.838;2023-04-25T00:33:41;100118.56;;;9.94;62.10
29371;BME280;16357;52.188;7.838;2023-04-25T00:36:07;100116.91;;;9.93;61.81
29371;BME280;16357;52.188;7.838;2023-04-25T00:38:34;100119.59;;;9.93;62.34
29371;BME280;16357;52.188;7.838;2023-04-25T00:41:00;100124.94;;;9.93;62.43
29371;BME280;16357;52.188;7.838;2023-04-25T00:43:30;100115.22;;;9.92;62.52
29371;BME280;16357;52.188;7.838;2023-04-25T00:46:00;100120.75;;;9.91;62.66
29371;BME280;16357;52.188;7.838;2023-04-25T00:48:26;100123.59;;;9.89;62.82
29371;BME280;16357;52.188;7.838;2023-04-25T00:50:54;100126.44;;;9.87;62.55
29371;BME280;16357;52.188;7.838;2023-04-25T00:53:22;100121.25;;;9.86;62.78
29371;BME280;16357;52.188;7.838;2023-04-25T00:55:49;100117.88;;;9.84;62.89
29371;BME280;16357;52.188;7.838;2023-04-25T00:58:20;100121.59;;;9.83;63.20
29371;BME280;16357;52.188;7.838;2023-04-25T01:00:49;100118.91;;;9.83;63.31
29371;BME280;16357;52.188;7.838;2023-04-25T01:03:17;100122.56;;;9.82;63.46
29371;BME280;16357;52.188;7.838;2023-04-25T01:05:46;100120.75;;;9.82;63.18
29371;BME280;16357;52.188;7.838;2023-04-25T01:08:13;100123.44;;;9.82;63.46
29371;BME280;16357;52.188;7.838;2023-04-25T01:10:40;100119.75;;;9.83;63.28
29371;BME280;16357;52.188;7.838;2023-04-25T01:13:06;100121.59;;;9.83;63.36
29371;BME280;16357;52.188;7.838;2023-04-25T01:15:33;100125.78;;;9.85;63.63
29371;BME280;16357;52.188;7.838;2023-04-25T01:18:02;100121.25;;;9.86;63.75
29371;BME280;16357;52.188;7.838;2023-04-25T01:20:29;100120.22;;;9.87;63.54
29371;BME280;16357;52.188;7.838;2023-04-25T01:22:55;100131.13;;;9.85;63.90
29371;BME280;16357;52.188;7.838;2023-04-25T01:25:23;100126.59;;;9.86;63.65
29371;BME280;16357;52.188;7.838;2023-04-25T01:27:50;100135.66;;;9.85;63.94
29371;BME280;16357;52.188;7.838;2023-04-25T01:30:17;100135.66;;;9.85;63.92
29371;BME280;16357;52.188;7.838;2023-04-25T01:32:44;100135.97;;;9.82;63.62
29371;BME280;16357;52.188;7.838;2023-04-25T01:35:11;100140.69;;;9.80;63.65
29371;BME280;16357;52.188;7.838;2023-04-25T01:37:39;100140.00;;;9.78;63.82
29371;BME280;16357;52.188;7.838;2023-04-25T01:40:07;100148.19;;;9.76;64.06
29371;BME280;16357;52.188;7.838;2023-04-25T01:42:35;100148.19;;;9.76;63.95
29371;BME280;16357;52.188;7.838;2023-04-25T01:45:02;100150.22;;;9.74;64.05
29371;BME280;16357;52.188;7.838;2023-04-25T01:47:28;100150.38;;;9.73;64.42
29371;BME280;16357;52.188;7.838;2023-04-25T01:49:58;100148.84;;;9.70;64.12
29371;BME280;16357;52.188;7.838;2023-04-25T01:52:24;100152.03;;;9.65;63.90
29371;BME280;16357;52.188;7.838;2023-04-25T01:54:51;100151.69;;;9.60;64.32
29371;BME280;16357;52.188;7.838;2023-04-25T01:57:19;100158.38;;;9.56;64.35
29371;BME280;16357;52.188;7.838;2023-04-25T01:59:46;100167.72;;;9.52;64.60
29371;BME280;16357;52.188;7.838;2023-04-25T02:02:12;100161.88;;;9.49;64.20
29371;BME280;16357;52.188;7.838;2023-04-25T02:04:39;100164.88;;;9.45;64.02
29371;BME280;16357;52.188;7.838;2023-04-25T02:07:05;100165.38;;;9.41;64.15
29371;BME280;16357;52.188;7.838;2023-04-25T02:09:32;100167.53;;;9.37;63.86
29371;BME280;16357;52.188;7.838;2023-04-25T02:11:58;100173.19;;;9.34;63.70
29371;BME280;16357;52.188;7.838;2023-04-25T02:14:24;100173.53;;;9.31;63.76
29371;BME280;16357;52.188;7.838;2023-04-25T02:16:51;100175.84;;;9.26;63.66
29371;BME280;16357;52.188;7.838;2023-04-25T02:19:18;100181.53;;;9.23;63.65
29371;BME280;16357;52.188;7.838;2023-04-25T02:21:44;100178.34;;;9.19;63.94
29371;BME280;16357;52.188;7.838;2023-04-25T02:24:11;100184.03;;;9.16;63.74
29371;BME280;16357;52.188;7.838;2023-04-25T02:26:38;100182.66;;;9.12;63.96
29371;BME280;16357;52.188;7.838;2023-04-25T02:29:04;100183.81;;;9.10;64.07
29371;BME280;16357;52.188;7.838;2023-04-25T02:31:30;100183.97;;;9.08;63.94
29371;BME280;16357;52.188;7.838;2023-04-25T02:33:57;100195.81;;;9.06;63.94
29371;BME280;16357;52.188;7.838;2023-04-25T02:36:24;100189.81;;;9.04;64.27
29371;BME280;16357;52.188;7.838;2023-04-25T02:38:50;100194.34;;;9.03;64.40
29371;BME280;16357;52.188;7.838;2023-04-25T02:41:17;100185.63;;;9.01;64.40
29371;BME280;16357;52.188;7.838;2023-04-25T02:43:43;100190.97;;;9.01;64.47
29371;BME280;16357;52.188;7.838;2023-04-25T02:46:09;100198.31;;;8.99;64.18
29371;BME280;16357;52.188;7.838;2023-04-25T02:48:36;100203.66;;;8.99;64.14
29371;BME280;16357;52.188;7.838;2023-04-25T02:51:02;100196.66;;;8.98;64.12
29371;BME280;16357;52.188;7.838;2023-04-25T02:53:29;100201.31;;;8.96;64.17
29371;BME280;16357;52.188;7.838;2023-04-25T02:55:55;100197.81;;;8.95;64.26
29371;BME280;16357;52.188;7.838;2023-04-25T02:58:24;100200.63;;;8.94;64.53
29371;BME280;16357;52.188;7.838;2023-04-25T03:00:51;100200.63;;;8.94;64.10
29371;BME280;16357;52.188;7.838;2023-04-25T03:03:17;100209.66;;;8.93;64.07
29371;BME280;16357;52.188;7.838;2023-04-25T03:05:44;100211.47;;;8.92;63.92
29371;BME280;16357;52.188;7.838;2023-04-25T03:08:12;100211.47;;;8.92;64.30
29371;BME280;16357;52.188;7.838;2023-04-25T03:10:39;100208.97;;;8.91;64.12
29371;BME280;16357;52.188;7.838;2023-04-25T03:13:05;100203.63;;;8.91;64.35
29371;BME280;16357;52.188;7.838;2023-04-25T03:15:32;100204.59;;;8.90;64.05
29371;BME280;16357;52.188;7.838;2023-04-25T03:17:58;100215.31;;;8.90;64.06
29371;BME280;16357;52.188;7.838;2023-04-25T03:20:25;100222.34;;;8.91;64.16
29371;BME280;16357;52.188;7.838;2023-04-25T03:22:51;100210.97;;;8.89;63.89
29371;BME280;16357;52.188;7.838;2023-04-25T03:25:17;100214.47;;;8.89;63.96
29371;BME280;16357;52.188;7.838;2023-04-25T03:27:44;100221.66;;;8.89;64.10
29371;BME280;16357;52.188;7.838;2023-04-25T03:30:10;100222.69;;;8.88;64.09
29371;BME280;16357;52.188;7.838;2023-04-25T03:32:37;100222.69;;;8.88;64.10
29371;BME280;16357;52.188;7.838;2023-04-25T03:35:04;100230.84;;;8.86;63.85
29371;BME280;16357;52.188;7.838;2023-04-25T03:37:31;100229.19;;;8.85;63.63
29371;BME280;16357;52.188;7.838;2023-04-25T03:39:57;100232.00;;;8.84;64.01
29371;BME280;16357;52.188;7.838;2023-04-25T03:42:24;100237.66;;;8.81;63.70
29371;BME280;16357;52.188;7.838;2023-04-25T03:44:51;100236.84;;;8.80;63.73
29371;BME280;16357;52.188;7.838;2023-04-25T03:47:17;100248.50;;;8.79;64.22
29371;BME280;16357;52.188;7.838;2023-04-25T03:49:44;100248.50;;;8.79;63.67
29371;BME280;16357;52.188;7.838;2023-04-25T03:52:10;100254.03;;;8.77;64.02
29371;BME280;16357;52.188;7.838;2023-04-25T03:54:37;100249.53;;;8.78;63.56
29371;BME280;16357;52.188;7.838;2023-04-25T03:57:03;100256.72;;;8.77;63.39
29371;BME280;16357;52.188;7.838;2023-04-25T03:59:29;100251.38;;;8.77;63.31
29371;BME280;16357;52.188;7.838;2023-04-25T04:01:56;100259.53;;;8.76;63.60
29371;BME280;16357;52.188;7.838;2023-04-25T04:04:23;100258.00;;;8.73;63.26
29371;BME280;16357;52.188;7.838;2023-04-25T04:06:50;100261.69;;;8.72;63.56
29371;BME280;16357;52.188;7.838;2023-04-25T04:09:17;100262.66;;;8.71;63.41
29371;BME280;16357;52.188;7.838;2023-04-25T04:11:43;100269.03;;;8.70;63.47
29371;BME280;16357;52.188;7.838;2023-04-25T04:14:10;100276.22;;;8.70;63.28
29371;BME280;16357;52.188;7.838;2023-04-25T04:16:36;100272.69;;;8.69;63.54
29371;BME280;16357;52.188;7.838;2023-04-25T04:19:03;100276.34;;;8.68;63.41
29371;BME280;16357;52.188;7.838;2023-04-25T04:21:30;100272.84;;;8.68;62.90
29371;BME280;16357;52.188;7.838;2023-04-25T04:23:56;100279.03;;;8.68;63.32
29371;BME280;16357;52.188;7.838;2023-04-25T04:26:24;100280.03;;;8.67;63.21
29371;BME280;16357;52.188;7.838;2023-04-25T04:28:50;100277.50;;;8.66;62.98
29371;BME280;16357;52.188;7.838;2023-04-25T04:31:17;100282.84;;;8.66;62.95
29371;BME280;16357;52.188;7.838;2023-04-25T04:33:45;100282.19;;;8.64;63.11
29371;BME280;16357;52.188;7.838;2023-04-25T04:36:12;100286.66;;;8.63;62.71
29371;BME280;16357;52.188;7.838;2023-04-25T04:38:39;100295.69;;;8.62;62.84
29371;BME280;16357;52.188;7.838;2023-04-25T04:41:07;100286.00;;;8.61;62.79
29371;BME280;16357;52.188;7.838;2023-04-25T04:43:34;100296.72;;;8.61;62.77
29371;BME280;16357;52.188;7.838;2023-04-25T04:46:00;100296.84;;;8.60;62.95
29371;BME280;16357;52.188;7.838;2023-04-25T04:48:27;100293.34;;;8.59;62.44
29371;BME280;16357;52.188;7.838;2023-04-25T04:50:54;100304.03;;;8.59;62.66
29371;BME280;16357;52.188;7.838;2023-04-25T04:53:20;100305.00;;;8.58;62.40
29371;BME280;16357;52.188;7.838;2023-04-25T04:55:47;100301.69;;;8.56;62.60
29371;BME280;16357;52.188;7.838;2023-04-25T04:58:13;100305.19;;;8.56;62.54
29371;BME280;16357;52.188;7.838;2023-04-25T05:00:41;100314.03;;;8.57;62.75
29371;BME280;16357;52.188;7.838;2023-04-25T05:03:08;100311.38;;;8.57;62.58
29371;BME280;16357;52.188;7.838;2023-04-25T05:05:34;100317.53;;;8.57;62.34
29371;BME280;16357;52.188;7.838;2023-04-25T05:08:01;100317.53;;;8.57;62.53
29371;BME280;16357;52.188;7.838;2023-04-25T05:10:27;100329.94;;;8.59;62.46
29371;BME280;16357;52.188;7.838;2023-04-25T05:12:54;100330.78;;;8.59;62.66
29371;BME280;16357;52.188;7.838;2023-04-25T05:15:20;100333.28;;;8.61;62.18
29371;BME280;16357;52.188;7.838;2023-04-25T05:17:47;100331.47;;;8.61;62.37
29371;BME280;16357;52.188;7.838;2023-04-25T05:20:13;100329.63;;;8.62;62.18
29371;BME280;16357;52.188;7.838;2023-04-25T05:22:40;100340.16;;;8.63;62.42
29371;BME280;16357;52.188;7.838;2023-04-25T05:25:08;100348.88;;;8.65;62.35
29371;BME280;16357;52.188;7.838;2023-04-25T05:27:35;100345.22;;;8.66;62.15
29371;BME280;16357;52.188;7.838;2023-04-25T05:30:02;100347.56;;;8.69;61.95
29371;BME280;16357;52.188;7.838;2023-04-25T05:32:28;100346.44;;;8.72;61.96
29371;BME280;16357;52.188;7.838;2023-04-25T05:34:55;100351.47;;;8.75;61.85
29371;BME280;16357;52.188;7.838;2023-04-25T05:37:21;100349.47;;;8.77;61.59
29371;BME280;16357;52.188;7.838;2023-04-25T05:39:48;100352.81;;;8.79;61.84
29371;BME280;16357;52.188;7.838;2023-04-25T05:42:14;100357.88;;;8.82;61.82
29371;BME280;16357;52.188;7.838;2023-04-25T05:44:40;100362.91;;;8.85;61.77
29371;BME280;16357;52.188;7.838;2023-04-25T05:47:07;100361.59;;;8.89;61.96
29371;BME280;16357;52.188;7.838;2023-04-25T05:49:34;100370.19;;;8.93;61.46
29371;BME280;16357;52.188;7.838;2023-04-25T05:52:00;100370.69;;;8.96;61.34
29371;BME280;16357;52.188;7.838;2023-04-25T05:54:27;100367.69;;;8.99;61.12
29371;BME280;16357;52.188;7.838;2023-04-25T05:56:53;100373.44;;;9.05;60.99
29371;BME280;16357;52.188;7.838;2023-04-25T05:59:19;100375.97;;;9.06;60.53
29371;BME280;16357;52.188;7.838;2023-04-25T06:01:46;100379.16;;;9.10;60.64
29371;BME280;16357;52.188;7.838;2023-04-25T06:04:13;100377.00;;;9.13;60.08
29371;BME280;16357;52.188;7.838;2023-04-25T06:06:40;100375.84;;;9.16;60.05
29371;BME280;16357;52.188;7.838;2023-04-25T06:09:06;100383.41;;;9.20;60.10
29371;BME280;16357;52.188;7.838;2023-04-25T06:11:33;100383.09;;;9.23;59.63
29371;BME280;16357;52.188;7.838;2023-04-25T06:13:59;100392.66;;;9.26;59.24
29371;BME280;16357;52.188;7.838;2023-04-25T06:16:25;100388.00;;;9.28;59.25
29371;BME280;16357;52.188;7.838;2023-04-25T06:18:52;100390.34;;;9.31;59.63
29371;BME280;16357;52.188;7.838;2023-04-25T06:21:18;100390.03;;;9.34;58.78
29371;BME280;16357;52.188;7.838;2023-04-25T06:23:45;100387.22;;;9.36;58.76
29371;BME280;16357;52.188;7.838;2023-04-25T06:26:12;100392.25;;;9.39;58.93
29371;BME280;16357;52.188;7.838;2023-04-25T06:28:38;100398.09;;;9.42;59.08
29371;BME280;16357;52.188;7.838;2023-04-25T06:31:04;100402.16;;;9.47;59.68
29371;BME280;16357;52.188;7.838;2023-04-25T06:33:31;100391.69;;;9.53;59.15
29371;BME280;16357;52.188;7.838;2023-04-25T06:35:57;100395.56;;;9.59;58.72
29371;BME280;16357;52.188;7.838;2023-04-25T06:38:24;100396.75;;;9.64;58.77
29371;BME280;16357;52.188;7.838;2023-04-25T06:40:50;100402.31;;;9.71;58.64
29371;BME280;16357;52.188;7.838;2023-04-25T06:43:17;100404.38;;;9.77;57.92
29371;BME280;16357;52.188;7.838;2023-04-25T06:45:43;100404.53;;;9.84;58.27
29371;BME280;16357;52.188;7.838;2023-04-25T06:48:13;100409.94;;;9.92;58.11
29371;BME280;16357;52.188;7.838;2023-04-25T06:50:40;100411.00;;;9.99;57.93
29371;BME280;16357;52.188;7.838;2023-04-25T06:53:06;100411.19;;;10.06;57.34
29371;BME280;16357;52.188;7.838;2023-04-25T06:55:35;100420.44;;;10.11;56.93
29371;BME280;16357;52.188;7.838;2023-04-25T06:58:01;100415.25;;;10.18;56.86
29371;BME280;16357;52.188;7.838;2023-04-25T07:00:27;100417.44;;;10.23;56.60
29371;BME280;16357;52.188;7.838;2023-04-25T07:02:55;100421.34;;;10.28;56.55
29371;BME280;16357;52.188;7.838;2023-04-25T07:05:21;100424.38;;;10.33;56.13
29371;BME280;16357;52.188;7.838;2023-04-25T07:07:48;100423.91;;;10.38;56.09
29371;BME280;16357;52.188;7.838;2023-04-25T07:10:14;100427.78;;;10.44;56.01
29371;BME280;16357;52.188;7.838;2023-04-25T07:12:41;100427.94;;;10.50;55.07
29371;BME280;16357;52.188;7.838;2023-04-25T07:15:08;100424.63;;;10.57;55.29
29371;BME280;16357;52.188;7.838;2023-04-25T07:17:36;100418.59;;;10.63;54.92
29371;BME280;16357;52.188;7.838;2023-04-25T07:20:03;100422.44;;;10.68;55.49
29371;BME280;16357;52.188;7.838;2023-04-25T07:22:30;100433.38;;;10.75;55.34
29371;BME280;16357;52.188;7.838;2023-04-25T07:24:56;100438.56;;;10.85;54.13
29371;BME280;16357;52.188;7.838;2023-04-25T07:27:22;100439.59;;;10.92;53.02
29371;BME280;16357;52.188;7.838;2023-04-25T07:29:49;100432.72;;;10.97;53.24
29371;BME280;16357;52.188;7.838;2023-04-25T07:32:15;100434.06;;;11.02;52.67
29371;BME280;16357;52.188;7.838;2023-04-25T07:34:41;100438.09;;;11.06;52.92
29371;BME280;16357;52.188;7.838;2023-04-25T07:37:08;100438.78;;;11.08;52.02
29371;BME280;16357;52.188;7.838;2023-04-25T07:39:34;100448.19;;;11.12;51.68
29371;BME280;16357;52.188;7.838;2023-04-25T07:42:01;100441.78;;;11.13;51.40
29371;BME280;16357;52.188;7.838;2023-04-25T07:44:28;100451.53;;;11.14;51.37
29371;BME280;16357;52.188;7.838;2023-04-25T07:46:56;100448.53;;;11.17;51.12
29371;BME280;16357;52.188;7.838;2023-04-25T07:49:22;100459.25;;;11.17;50.78
29371;BME280;16357;52.188;7.838;2023-04-25T07:51:49;100459.25;;;11.17;50.06
29371;BME280;16357;52.188;7.838;2023-04-25T07:54:16;100457.56;;;11.16;50.16
29371;BME280;16357;52.188;7.838;2023-04-25T07:56:43;100457.22;;;11.11;49.89
29371;BME280;16357;52.188;7.838;2023-04-25T07:59:18;100463.94;;;11.07;49.50
29371;BME280;16357;52.188;7.838;2023-04-25T08:01:44;100459.56;;;10.97;49.20
29371;BME280;16357;52.188;7.838;2023-04-25T08:04:11;100469.31;;;10.90;49.31
29371;BME280;16357;52.188;7.838;2023-04-25T08:06:38;100474.47;;;10.84;50.20
29371;BME280;16357;52.188;7.838;2023-04-25T08:09:04;100481.34;;;10.78;50.13
29371;BME280;16357;52.188;7.838;2023-04-25T08:11:31;100483.34;;;10.76;50.17
29371;BME280;16357;52.188;7.838;2023-04-25T08:13:57;100487.03;;;10.75;49.47
29371;BME280;16357;52.188;7.838;2023-04-25T08:16:24;100494.75;;;10.78;49.78
29371;BME280;16357;52.188;7.838;2023-04-25T08:18:50;100482.84;;;10.81;49.99
29371;BME280;16357;52.188;7.838;2023-04-25T08:21:17;100490.56;;;10.84;49.84
29371;BME280;16357;52.188;7.838;2023-04-25T08:23:44;100483.72;;;10.89;49.98
29371;BME280;16357;52.188;7.838;2023-04-25T08:26:11;100493.81;;;10.95;49.23
29371;BME280;16357;52.188;7.838;2023-04-25T08:28:37;100491.13;;;11.04;49.33
29371;BME280;16357;52.188;7.838;2023-04-25T08:31:04;100506.22;;;11.13;49.30
29371;BME280;16357;52.188;7.838;2023-04-25T08:33:31;100503.41;;;11.23;49.03
29371;BME280;16357;52.188;7.838;2023-04-25T08:35:58;100508.44;;;11.34;48.16
29371;BME280;16357;52.188;7.838;2023-04-25T08:38:25;100507.09;;;11.46;48.32
29371;BME280;16357;52.188;7.838;2023-04-25T08:40:52;100503.22;;;11.57;47.91
29371;BME280;16357;52.188;7.838;2023-04-25T08:43:19;100510.94;;;11.68;48.18
29371;BME280;16357;52.188;7.838;2023-04-25T08:45:46;100513.28;;;11.79;47.83
29371;BME280;16357;52.188;7.838;2023-04-25T08:48:14;100507.59;;;11.91;47.30
29371;BME280;16357;52.188;7.838;2023-04-25T08:50:50;100510.94;;;12.01;46.78
29371;BME280;16357;52.188;7.838;2023-04-25T08:53:26;100518.31;;;12.07;46.35
29371;BME280;16357;52.188;7.838;2023-04-25T08:55:55;100508.22;;;12.09;46.50
29371;BME280;16357;52.188;7.838;2023-04-25T08:58:23;100524.38;;;12.09;46.80
29371;BME280;16357;52.188;7.838;2023-04-25T09:00:51;100521.66;;;12.09;46.79
29371;BME280;16357;52.188;7.838;2023-04-25T09:03:18;100535.47;;;12.06;46.29
29371;BME280;16357;52.188;7.838;2023-04-25T09:05:45;100548.59;;;12.01;46.14
29371;BME280;16357;52.188;7.838;2023-04-25T09:08:12;100542.88;;;11.96;45.75
29371;BME280;16357;52.188;7.838;2023-04-25T09:10:40;100537.16;;;11.91;46.45
29371;BME280;16357;52.188;7.838;2023-04-25T09:15:33;100551.22;;;11.84;47.22
29371;BME280;16357;52.188;7.838;2023-04-25T09:17:59;100562.69;;;11.86;46.54
29371;BME280;16357;52.188;7.838;2023-04-25T09:20:26;100560.69;;;11.89;45.73
29371;BME280;16357;52.188;7.838;2023-04-25T09:23:05;100560.53;;;11.90;46.15
29371;BME280;16357;52.188;7.838;2023-04-25T09:25:37;100568.41;;;11.92;46.14
29371;BME280;16357;52.188;7.838;2023-04-25T09:28:06;100567.72;;;11.90;45.42
29371;BME280;16357;52.188;7.838;2023-04-25T09:30:36;100566.06;;;11.89;45.89
29371;BME280;16357;52.188;7.838;2023-04-25T09:33:06;100570.41;;;11.90;46.70
29371;BME280;16357;52.188;7.838;2023-04-25T09:35:39;100568.06;;;11.95;47.34
29371;BME280;16357;52.188;7.838;2023-04-25T09:38:11;100570.41;;;12.06;47.29
29371;BME280;16357;52.188;7.838;2023-04-25T09:40:44;100564.34;;;12.20;45.61
29371;BME280;16357;52.188;7.838;2023-04-25T09:43:22;100561.44;;;12.38;45.03
29371;BME280;16357;52.188;7.838;2023-04-25T09:45:49;100560.69;;;12.52;43.21
29371;BME280;16357;52.188;7.838;2023-04-25T09:48:18;100575.47;;;12.65;42.43
29371;BME280;16357;52.188;7.838;2023-04-25T09:53:30;100553.50;;;12.84;41.82
29371;BME280;16357;52.188;7.838;2023-04-25T09:56:00;100563.59;;;12.90;41.91
29371;BME280;16357;52.188;7.838;2023-04-25T09:58:29;100572.81;;;12.96;41.70
29371;BME280;16357;52.188;7.838;2023-04-25T10:01:00;100563.84;;;13.04;41.92
29371;BME280;16357;52.188;7.838;2023-04-25T10:03:29;100568.00;;;13.14;42.36
29371;BME280;16357;52.188;7.838;2023-04-25T10:05:59;100568.94;;;13.22;42.31
29371;BME280;16357;52.188;7.838;2023-04-25T10:08:32;100569.78;;;13.30;42.72
29371;BME280;16357;52.188;7.838;2023-04-25T10:11:01;100586.88;;;13.37;41.02
29371;BME280;16357;52.188;7.838;2023-04-25T10:13:30;100579.31;;;13.41;40.40
29371;BME280;16357;52.188;7.838;2023-04-25T10:16:03;100584.69;;;13.41;40.81
29371;BME280;16357;52.188;7.838;2023-04-25T10:18:32;100593.16;;;13.38;40.44
29371;BME280;16357;52.188;7.838;2023-04-25T10:21:00;100594.88;;;13.31;40.89
29371;BME280;16357;52.188;7.838;2023-04-25T10:23:29;100595.38;;;13.26;41.06
29371;BME280;16357;52.188;7.838;2023-04-25T10:25:57;100608.50;;;13.21;40.98
29371;BME280;16357;52.188;7.838;2023-04-25T10:28:23;100592.56;;;13.20;40.60
29371;BME280;16357;52.188;7.838;2023-04-25T10:31:03;100585.97;;;13.22;42.36
29371;BME280;16357;52.188;7.838;2023-04-25T10:33:37;100590.66;;;13.28;41.74
29371;BME280;16357;52.188;7.838;2023-04-25T10:36:12;100598.22;;;13.33;42.21
29371;BME280;16357;52.188;7.838;2023-04-25T10:38:39;100590.81;;;13.35;41.59
29371;BME280;16357;52.188;7.838;2023-04-25T10:41:07;100588.38;;;13.40;41.45
29371;BME280;16357;52.188;7.838;2023-04-25T10:43:43;100594.28;;;13.44;41.81
29371;BME280;16357;52.188;7.838;2023-04-25T10:48:57;100587.81;;;13.53;42.41
29371;BME280;16357;52.188;7.838;2023-04-25T10:51:34;100593.31;;;13.59;40.85
29371;BME280;16357;52.188;7.838;2023-04-25T10:54:22;100617.53;;;13.68;40.07
29371;BME280;16357;52.188;7.838;2023-04-25T10:56:50;100609.75;;;13.73;39.44
29371;BME280;16357;52.188;7.838;2023-04-25T10:59:18;100592.81;;;13.79;40.00
29371;BME280;16357;52.188;7.838;2023-04-25T11:01:52;100594.44;;;13.88;40.64
29371;BME280;16357;52.188;7.838;2023-04-25T11:04:24;100598.06;;;13.95;40.71
29371;BME280;16357;52.188;7.838;2023-04-25T11:09:33;100622.66;;;14.00;38.83
29371;BME280;16357;52.188;7.838;2023-04-25T11:12:01;100621.06;;;13.91;38.69
29371;BME280;16357;52.188;7.838;2023-04-25T11:14:27;100616.09;;;13.80;39.37
29371;BME280;16357;52.188;7.838;2023-04-25T11:16:55;100624.78;;;13.67;39.28
29371;BME280;16357;52.188;7.838;2023-04-25T11:19:27;100627.03;;;13.55;39.91
29371;BME280;16357;52.188;7.838;2023-04-25T11:21:58;100622.91;;;13.45;40.15
29371;BME280;16357;52.188;7.838;2023-04-25T11:24:27;100632.69;;;13.37;40.78
29371;BME280;16357;52.188;7.838;2023-04-25T11:26:53;100631.38;;;13.33;40.82
29371;BME280;16357;52.188;7.838;2023-04-25T11:29:26;100634.75;;;13.35;41.53
29371;BME280;16357;52.188;7.838;2023-04-25T11:31:53;100621.09;;;13.37;41.49
29371;BME280;16357;52.188;7.838;2023-04-25T11:34:22;100627.16;;;13.39;41.49
29371;BME280;16357;52.188;7.838;2023-04-25T11:36:48;100629.47;;;13.42;41.39
29371;BME280;16357;52.188;7.838;2023-04-25T11:39:14;100629.13;;;13.45;41.92
29371;BME280;16357;52.188;7.838;2023-04-25T11:41:41;100637.03;;;13.47;41.32
29371;BME280;16357;52.188;7.838;2023-04-25T11:44:11;100653.22;;;13.47;41.46
29371;BME280;16357;52.188;7.838;2023-04-25T11:46:38;100630.16;;;13.44;41.40
29371;BME280;16357;52.188;7.838;2023-04-25T11:49:04;100629.47;;;13.42;41.80
29371;BME280;16357;52.188;7.838;2023-04-25T11:51:44;100617.69;;;13.43;41.68
29371;BME280;16357;52.188;7.838;2023-04-25T11:54:11;100628.13;;;13.46;41.05
29371;BME280;16357;52.188;7.838;2023-04-25T11:56:42;100628.06;;;13.54;42.01
29371;BME280;16357;52.188;7.838;2023-04-25T11:59:09;100635.72;;;13.66;41.17
29371;BME280;16357;52.188;7.838;2023-04-25T12:01:37;100664.25;;;13.83;40.91
29371;BME280;16357;52.188;7.838;2023-04-25T12:04:12;100623.50;;;14.01;40.50
29371;BME280;16357;52.188;7.838;2023-04-25T12:06:41;100634.53;;;14.14;39.72
29371;BME280;16357;52.188;7.838;2023-04-25T12:09:11;100637.97;;;14.23;39.20
29371;BME280;16357;52.188;7.838;2023-04-25T12:14:20;100670.06;;;14.18;40.29
29371;BME280;16357;52.188;7.838;2023-04-25T12:16:48;100672.75;;;13.95;40.83
29371;BME280;16357;52.188;7.838;2023-04-25T12:19:19;100684.63;;;13.63;41.88
29371;BME280;16357;52.188;7.838;2023-04-25T12:21:47;100685.28;;;13.25;41.76
29371;BME280;16357;52.188;7.838;2023-04-25T12:24:21;100691.81;;;12.91;42.32
29371;BME280;16357;52.188;7.838;2023-04-25T12:26:53;100703.50;;;12.59;42.86
29371;BME280;16357;52.188;7.838;2023-04-25T12:29:26;100685.00;;;12.32;42.61
29371;BME280;16357;52.188;7.838;2023-04-25T12:32:00;100695.44;;;12.10;42.82
29371;BME280;16357;52.188;7.838;2023-04-25T12:34:30;100696.25;;;11.94;42.77
29371;BME280;16357;52.188;7.838;2023-04-25T12:36:58;100688.66;;;11.81;42.85
29371;BME280;16357;52.188;7.838;2023-04-25T12:39:25;100678.91;;;11.72;42.35
29371;BME280;16357;52.188;7.838;2023-04-25T12:41:52;100675.03;;;11.67;42.86
29371;BME280;16357;52.188;7.838;2023-04-25T12:44:22;100675.34;;;11.63;43.00
29371;BME280;16357;52.188;7.838;2023-04-25T12:46:48;100674.50;;;11.63;42.47
29371;BME280;16357;52.188;7.838;2023-04-25T12:49:16;100674.19;;;11.66;42.75
29371;BME280;16357;52.188;7.838;2023-04-25T12:51:44;100673.19;;;11.75;42.48
29371;BME280;16357;52.188;7.838;2023-04-25T12:54:11;100664.84;;;11.86;42.37
29371;BME280;16357;52.188;7.838;2023-04-25T12:56:38;100666.88;;;12.01;42.05
29371;BME280;16357;52.188;7.838;2023-04-25T12:59:04;100689.91;;;12.20;43.03
29371;BME280;16357;52.188;7.838;2023-04-25T13:01:31;100691.25;;;12.40;42.64
29371;BME280;16357;52.188;7.838;2023-04-25T13:04:01;100681.13;;;12.59;42.01
29371;BME280;16357;52.188;7.838;2023-04-25T13:06:28;100706.50;;;12.72;41.99
29371;BME280;16357;52.188;7.838;2023-04-25T13:08:56;100714.19;;;12.84;41.52
29371;BME280;16357;52.188;7.838;2023-04-25T13:11:22;100699.56;;;12.86;41.43